sensor_id;sensor_type;location;lat;lon;timestamp;P1;durP1;ratioP1;P2;durP2;ratioP2
11006;SDS011;8186;57.652;11.968;2022-12-29T00:02:25;1.30;;;1.10;;
11006;SDS011;8186;57.652;11.968;2022-12-29T00:04:51;0.87;;;0.80;;
11006;SDS011;8186;57.652;11.968;2022-12-29T00:07:18;1.37;;;0.90;;
11006;SDS011;8186;57.652;11.968;2022-12-29T00:09:45;2.40;;;0.90;;
11006;SDS011;8186;57.652;11.968;2022-12-29T00:12:12;1.80;;;1.20;;
11006;SDS011;8186;57.652;11.968;2022-12-29T00:14:39;2.50;;;0.90;;
11006;SDS011;8186;57.652;11.968;2022-12-29T00:17:27;2.80;;;1.07;;
11006;SDS011;8186;57.652;11.968;2022-12-29T00:19:54;1.40;;;1.00;;
11006;SDS011;8186;57.652;11.968;2022-12-29T00:22:39;1.27;;;1.00;;
11006;SDS011;8186;57.652;11.968;2022-12-29T00:25:23;0.70;;;0.70;;
11006;SDS011;8186;57.652;11.968;2022-12-29T00:28:08;1.23;;;0.90;;
11006;SDS011;8186;57.652;11.968;2022-12-29T00:30:53;2.00;;;0.90;;
11006;SDS011;8186;57.652;11.968;2022-12-29T00:33:38;2.60;;;0.90;;
11006;SDS011;8186;57.652;11.968;2022-12-29T00:36:24;0.73;;;0.70;;
11006;SDS011;8186;57.652;11.968;2022-12-29T00:38:54;2.03;;;0.80;;
11006;SDS011;8186;57.652;11.968;2022-12-29T00:41:42;2.07;;;1.00;;
11006;SDS011;8186;57.652;11.968;2022-12-29T00:44:27;0.97;;;0.70;;
11006;SDS011;8186;57.652;11.968;2022-12-29T00:46:54;0.83;;;0.70;;
11006;SDS011;8186;57.652;11.968;2022-12-29T00:49:22;0.67;;;0.60;;
11006;SDS011;8186;57.652;11.968;2022-12-29T00:51:58;1.07;;;0.60;;
11006;SDS011;8186;57.652;11.968;2022-12-29T00:54:26;1.67;;;0.70;;
11006;SDS011;8186;57.652;11.968;2022-12-29T00:56:54;2.43;;;0.60;;
11006;SDS011;8186;57.652;11.968;2022-12-29T00:59:21;3.57;;;1.20;;
11006;SDS011;8186;57.652;11.968;2022-12-29T01:01:49;1.00;;;0.90;;
11006;SDS011;8186;57.652;11.968;2022-12-29T01:04:16;0.90;;;0.70;;
11006;SDS011;8186;57.652;11.968;2022-12-29T01:06:45;1.00;;;0.87;;
11006;SDS011;8186;57.652;11.968;2022-12-29T01:09:12;1.87;;;1.00;;
11006;SDS011;8186;57.652;11.968;2022-12-29T01:11:56;3.07;;;1.30;;
11006;SDS011;8186;57.652;11.968;2022-12-29T01:14:23;1.60;;;1.40;;
11006;SDS011;8186;57.652;11.968;2022-12-29T01:16:50;2.10;;;1.40;;
11006;SDS011;8186;57.652;11.968;2022-12-29T01:19:18;2.43;;;1.63;;
11006;SDS011;8186;57.652;11.968;2022-12-29T01:21:47;4.73;;;1.90;;
11006;SDS011;8186;57.652;11.968;2022-12-29T01:24:14;5.57;;;2.10;;
11006;SDS011;8186;57.652;11.968;2022-12-29T01:26:42;4.60;;;2.30;;
11006;SDS011;8186;57.652;11.968;2022-12-29T01:29:09;3.20;;;2.00;;
11006;SDS011;8186;57.652;11.968;2022-12-29T01:31:36;3.43;;;2.43;;
11006;SDS011;8186;57.652;11.968;2022-12-29T01:34:04;5.03;;;2.47;;
11006;SDS011;8186;57.652;11.968;2022-12-29T01:36:31;7.00;;;2.60;;
11006;SDS011;8186;57.652;11.968;2022-12-29T01:39:00;7.53;;;3.20;;
11006;SDS011;8186;57.652;11.968;2022-12-29T01:41:27;7.70;;;3.30;;
11006;SDS011;8186;57.652;11.968;2022-12-29T01:43:54;4.00;;;3.20;;
11006;SDS011;8186;57.652;11.968;2022-12-29T01:46:25;3.07;;;2.20;;
11006;SDS011;8186;57.652;11.968;2022-12-29T01:48:53;4.33;;;2.70;;
11006;SDS011;8186;57.652;11.968;2022-12-29T01:51:24;6.47;;;2.37;;
11006;SDS011;8186;57.652;11.968;2022-12-29T01:53:52;3.70;;;2.17;;
11006;SDS011;8186;57.652;11.968;2022-12-29T01:56:21;4.70;;;2.10;;
11006;SDS011;8186;57.652;11.968;2022-12-29T01:58:49;3.57;;;2.13;;
11006;SDS011;8186;57.652;11.968;2022-12-29T02:01:20;3.03;;;2.13;;
11006;SDS011;8186;57.652;11.968;2022-12-29T02:03:47;3.00;;;1.83;;
11006;SDS011;8186;57.652;11.968;2022-12-29T02:06:16;4.00;;;2.00;;
11006;SDS011;8186;57.652;11.968;2022-12-29T02:08:45;3.50;;;2.53;;
11006;SDS011;8186;57.652;11.968;2022-12-29T02:11:13;1.90;;;1.60;;
11006;SDS011;8186;57.652;11.968;2022-12-29T02:13:43;2.73;;;1.73;;
11006;SDS011;8186;57.652;11.968;2022-12-29T02:16:14;3.10;;;1.70;;
11006;SDS011;8186;57.652;11.968;2022-12-29T02:18:50;2.37;;;1.67;;
11006;SDS011;8186;57.652;11.968;2022-12-29T02:27:13;2.77;;;1.90;;
11006;SDS011;8186;57.652;11.968;2022-12-29T02:30:05;1.83;;;1.67;;
11006;SDS011;8186;57.652;11.968;2022-12-29T02:32:38;3.43;;;1.53;;
11006;SDS011;8186;57.652;11.968;2022-12-29T02:35:13;3.37;;;1.70;;
11006;SDS011;8186;57.652;11.968;2022-12-29T02:37:46;2.10;;;1.77;;
11006;SDS011;8186;57.652;11.968;2022-12-29T02:40:17;1.63;;;1.10;;
11006;SDS011;8186;57.652;11.968;2022-12-29T02:42:49;3.03;;;1.27;;
11006;SDS011;8186;57.652;11.968;2022-12-29T02:45:20;1.20;;;1.10;;
11006;SDS011;8186;57.652;11.968;2022-12-29T02:47:51;1.23;;;0.90;;
11006;SDS011;8186;57.652;11.968;2022-12-29T02:50:22;2.63;;;1.10;;
11006;SDS011;8186;57.652;11.968;2022-12-29T02:52:52;1.17;;;0.90;;
11006;SDS011;8186;57.652;11.968;2022-12-29T02:55:23;1.83;;;0.93;;
11006;SDS011;8186;57.652;11.968;2022-12-29T02:57:49;1.07;;;0.97;;
11006;SDS011;8186;57.652;11.968;2022-12-29T03:00:35;1.70;;;0.90;;
11006;SDS011;8186;57.652;11.968;2022-12-29T03:03:16;0.90;;;0.73;;
11006;SDS011;8186;57.652;11.968;2022-12-29T03:05:50;1.20;;;0.80;;
11006;SDS011;8186;57.652;11.968;2022-12-29T03:08:39;0.70;;;0.70;;
11006;SDS011;8186;57.652;11.968;2022-12-29T03:11:09;1.67;;;0.70;;
11006;SDS011;8186;57.652;11.968;2022-12-29T03:13:52;1.03;;;0.63;;
11006;SDS011;8186;57.652;11.968;2022-12-29T03:16:42;0.60;;;0.60;;
11006;SDS011;8186;57.652;11.968;2022-12-29T03:19:14;0.90;;;0.60;;
11006;SDS011;8186;57.652;11.968;2022-12-29T03:21:44;1.33;;;0.60;;
11006;SDS011;8186;57.652;11.968;2022-12-29T03:24:31;1.10;;;0.60;;
11006;SDS011;8186;57.652;11.968;2022-12-29T03:27:00;1.00;;;0.60;;
11006;SDS011;8186;57.652;11.968;2022-12-29T03:29:29;0.83;;;0.73;;
11006;SDS011;8186;57.652;11.968;2022-12-29T03:31:58;1.20;;;0.70;;
11006;SDS011;8186;57.652;11.968;2022-12-29T03:34:27;0.50;;;0.50;;
11006;SDS011;8186;57.652;11.968;2022-12-29T03:36:56;1.07;;;0.80;;
11006;SDS011;8186;57.652;11.968;2022-12-29T03:39:26;0.73;;;0.60;;
11006;SDS011;8186;57.652;11.968;2022-12-29T03:41:54;0.53;;;0.50;;
11006;SDS011;8186;57.652;11.968;2022-12-29T03:44:31;0.30;;;0.30;;
11006;SDS011;8186;57.652;11.968;2022-12-29T03:46:58;0.57;;;0.57;;
11006;SDS011;8186;57.652;11.968;2022-12-29T03:49:25;0.67;;;0.50;;
11006;SDS011;8186;57.652;11.968;2022-12-29T03:51:54;1.17;;;0.40;;
11006;SDS011;8186;57.652;11.968;2022-12-29T03:54:21;0.70;;;0.50;;
11006;SDS011;8186;57.652;11.968;2022-12-29T03:56:48;0.50;;;0.50;;
11006;SDS011;8186;57.652;11.968;2022-12-29T03:59:15;0.73;;;0.50;;
11006;SDS011;8186;57.652;11.968;2022-12-29T04:01:42;0.53;;;0.30;;
11006;SDS011;8186;57.652;11.968;2022-12-29T04:04:09;0.50;;;0.40;;
11006;SDS011;8186;57.652;11.968;2022-12-29T04:06:37;0.40;;;0.30;;
11006;SDS011;8186;57.652;11.968;2022-12-29T04:09:04;0.30;;;0.30;;
11006;SDS011;8186;57.652;11.968;2022-12-29T04:11:31;0.57;;;0.50;;
11006;SDS011;8186;57.652;11.968;2022-12-29T04:13:58;0.30;;;0.30;;
11006;SDS011;8186;57.652;11.968;2022-12-29T04:16:25;0.37;;;0.30;;
11006;SDS011;8186;57.652;11.968;2022-12-29T04:18:52;0.27;;;0.27;;
11006;SDS011;8186;57.652;11.968;2022-12-29T04:21:19;0.30;;;0.30;;
11006;SDS011;8186;57.652;11.968;2022-12-29T04:23:48;0.90;;;0.30;;
11006;SDS011;8186;57.652;11.968;2022-12-29T04:26:14;0.63;;;0.30;;
11006;SDS011;8186;57.652;11.968;2022-12-29T04:28:41;0.30;;;0.30;;
11006;SDS011;8186;57.652;11.968;2022-12-29T04:31:08;0.87;;;0.40;;
11006;SDS011;8186;57.652;11.968;2022-12-29T04:33:35;0.40;;;0.40;;
11006;SDS011;8186;57.652;11.968;2022-12-29T04:36:02;2.00;;;0.50;;
11006;SDS011;8186;57.652;11.968;2022-12-29T04:38:29;2.40;;;0.67;;
11006;SDS011;8186;57.652;11.968;2022-12-29T04:40:59;1.07;;;0.70;;
11006;SDS011;8186;57.652;11.968;2022-12-29T04:43:27;2.80;;;0.80;;
11006;SDS011;8186;57.652;11.968;2022-12-29T04:45:54;1.47;;;0.80;;
11006;SDS011;8186;57.652;11.968;2022-12-29T04:48:21;3.03;;;0.83;;
11006;SDS011;8186;57.652;11.968;2022-12-29T04:50:49;1.20;;;0.90;;
11006;SDS011;8186;57.652;11.968;2022-12-29T04:53:16;1.50;;;0.90;;
11006;SDS011;8186;57.652;11.968;2022-12-29T04:55:43;3.53;;;1.20;;
11006;SDS011;8186;57.652;11.968;2022-12-29T04:58:12;4.47;;;1.20;;
11006;SDS011;8186;57.652;11.968;2022-12-29T05:00:39;6.33;;;1.50;;
11006;SDS011;8186;57.652;11.968;2022-12-29T05:03:06;2.93;;;1.40;;
11006;SDS011;8186;57.652;11.968;2022-12-29T05:05:32;2.73;;;1.57;;
11006;SDS011;8186;57.652;11.968;2022-12-29T05:07:59;3.17;;;1.40;;
11006;SDS011;8186;57.652;11.968;2022-12-29T05:10:26;6.10;;;1.87;;
11006;SDS011;8186;57.652;11.968;2022-12-29T05:12:53;6.37;;;1.87;;
11006;SDS011;8186;57.652;11.968;2022-12-29T05:15:22;2.30;;;1.30;;
11006;SDS011;8186;57.652;11.968;2022-12-29T05:17:49;4.10;;;2.60;;
11006;SDS011;8186;57.652;11.968;2022-12-29T05:20:16;4.70;;;2.23;;
11006;SDS011;8186;57.652;11.968;2022-12-29T05:22:43;6.90;;;2.33;;
11006;SDS011;8186;57.652;11.968;2022-12-29T05:25:10;5.23;;;2.90;;
11006;SDS011;8186;57.652;11.968;2022-12-29T05:27:37;3.40;;;1.63;;
11006;SDS011;8186;57.652;11.968;2022-12-29T05:30:05;1.50;;;1.33;;
11006;SDS011;8186;57.652;11.968;2022-12-29T05:32:34;3.40;;;1.30;;
11006;SDS011;8186;57.652;11.968;2022-12-29T05:35:01;3.87;;;1.60;;
11006;SDS011;8186;57.652;11.968;2022-12-29T05:37:28;3.03;;;1.33;;
11006;SDS011;8186;57.652;11.968;2022-12-29T05:39:55;3.47;;;1.60;;
11006;SDS011;8186;57.652;11.968;2022-12-29T05:42:22;3.90;;;2.00;;
11006;SDS011;8186;57.652;11.968;2022-12-29T05:44:49;3.30;;;2.17;;
11006;SDS011;8186;57.652;11.968;2022-12-29T05:47:18;8.37;;;2.90;;
11006;SDS011;8186;57.652;11.968;2022-12-29T05:49:47;4.60;;;2.30;;
11006;SDS011;8186;57.652;11.968;2022-12-29T05:52:14;5.23;;;2.70;;
11006;SDS011;8186;57.652;11.968;2022-12-29T05:54:41;7.10;;;2.53;;
11006;SDS011;8186;57.652;11.968;2022-12-29T05:57:07;6.13;;;2.60;;
11006;SDS011;8186;57.652;11.968;2022-12-29T05:59:35;5.03;;;2.37;;
11006;SDS011;8186;57.652;11.968;2022-12-29T06:02:02;2.77;;;2.30;;
11006;SDS011;8186;57.652;11.968;2022-12-29T06:04:29;6.13;;;4.20;;
11006;SDS011;8186;57.652;11.968;2022-12-29T06:06:57;5.17;;;3.40;;
11006;SDS011;8186;57.652;11.968;2022-12-29T06:09:24;5.07;;;4.03;;
11006;SDS011;8186;57.652;11.968;2022-12-29T06:11:51;7.97;;;4.23;;
11006;SDS011;8186;57.652;11.968;2022-12-29T06:14:18;9.27;;;6.00;;
11006;SDS011;8186;57.652;11.968;2022-12-29T06:16:45;7.27;;;5.63;;
11006;SDS011;8186;57.652;11.968;2022-12-29T06:19:12;10.77;;;6.03;;
11006;SDS011;8186;57.652;11.968;2022-12-29T06:21:39;12.80;;;7.13;;
11006;SDS011;8186;57.652;11.968;2022-12-29T06:24:08;10.93;;;7.63;;
11006;SDS011;8186;57.652;11.968;2022-12-29T06:26:36;14.87;;;6.60;;
11006;SDS011;8186;57.652;11.968;2022-12-29T06:29:03;9.97;;;6.97;;
11006;SDS011;8186;57.652;11.968;2022-12-29T06:31:30;12.23;;;6.93;;
11006;SDS011;8186;57.652;11.968;2022-12-29T06:33:57;11.97;;;6.10;;
11006;SDS011;8186;57.652;11.968;2022-12-29T06:36:23;10.10;;;7.00;;
11006;SDS011;8186;57.652;11.968;2022-12-29T06:38:51;7.90;;;5.10;;
11006;SDS011;8186;57.652;11.968;2022-12-29T06:41:19;11.90;;;5.17;;
11006;SDS011;8186;57.652;11.968;2022-12-29T06:43:46;6.47;;;4.20;;
11006;SDS011;8186;57.652;11.968;2022-12-29T06:46:13;4.30;;;2.97;;
11006;SDS011;8186;57.652;11.968;2022-12-29T06:48:40;4.23;;;2.23;;
11006;SDS011;8186;57.652;11.968;2022-12-29T06:51:08;2.57;;;2.20;;
11006;SDS011;8186;57.652;11.968;2022-12-29T06:53:35;4.07;;;2.00;;
11006;SDS011;8186;57.652;11.968;2022-12-29T06:56:02;2.23;;;1.87;;
11006;SDS011;8186;57.652;11.968;2022-12-29T06:58:31;2.87;;;2.13;;
11006;SDS011;8186;57.652;11.968;2022-12-29T07:00:58;3.37;;;1.97;;
11006;SDS011;8186;57.652;11.968;2022-12-29T07:03:25;1.90;;;1.70;;
11006;SDS011;8186;57.652;11.968;2022-12-29T07:05:52;2.23;;;2.03;;
11006;SDS011;8186;57.652;11.968;2022-12-29T07:08:19;3.43;;;1.60;;
11006;SDS011;8186;57.652;11.968;2022-12-29T07:10:46;4.33;;;2.37;;
11006;SDS011;8186;57.652;11.968;2022-12-29T07:13:13;3.43;;;2.07;;
11006;SDS011;8186;57.652;11.968;2022-12-29T07:15:41;3.70;;;2.30;;
11006;SDS011;8186;57.652;11.968;2022-12-29T07:18:08;3.80;;;2.07;;
11006;SDS011;8186;57.652;11.968;2022-12-29T07:20:35;5.83;;;2.43;;
11006;SDS011;8186;57.652;11.968;2022-12-29T07:23:02;2.60;;;2.40;;
11006;SDS011;8186;57.652;11.968;2022-12-29T07:25:29;8.40;;;4.00;;
11006;SDS011;8186;57.652;11.968;2022-12-29T07:27:56;8.80;;;3.90;;
11006;SDS011;8186;57.652;11.968;2022-12-29T07:30:24;8.33;;;3.53;;
11006;SDS011;8186;57.652;11.968;2022-12-29T07:32:52;6.03;;;4.50;;
11006;SDS011;8186;57.652;11.968;2022-12-29T07:35:19;8.07;;;3.80;;
11006;SDS011;8186;57.652;11.968;2022-12-29T07:37:46;10.30;;;4.50;;
11006;SDS011;8186;57.652;11.968;2022-12-29T07:40:15;8.73;;;4.13;;
11006;SDS011;8186;57.652;11.968;2022-12-29T07:42:42;4.70;;;3.37;;
11006;SDS011;8186;57.652;11.968;2022-12-29T07:45:09;6.77;;;3.60;;
11006;SDS011;8186;57.652;11.968;2022-12-29T07:47:36;7.73;;;3.50;;
11006;SDS011;8186;57.652;11.968;2022-12-29T07:50:06;8.20;;;3.30;;
11006;SDS011;8186;57.652;11.968;2022-12-29T07:52:33;6.70;;;3.13;;
11006;SDS011;8186;57.652;11.968;2022-12-29T07:55:00;5.40;;;3.23;;
11006;SDS011;8186;57.652;11.968;2022-12-29T07:57:27;10.63;;;3.87;;
11006;SDS011;8186;57.652;11.968;2022-12-29T07:59:55;6.87;;;4.23;;
11006;SDS011;8186;57.652;11.968;2022-12-29T08:02:22;7.87;;;3.90;;
11006;SDS011;8186;57.652;11.968;2022-12-29T08:04:51;8.63;;;4.20;;
11006;SDS011;8186;57.652;11.968;2022-12-29T08:07:19;7.27;;;3.63;;
11006;SDS011;8186;57.652;11.968;2022-12-29T08:09:46;13.37;;;4.60;;
11006;SDS011;8186;57.652;11.968;2022-12-29T08:12:13;12.07;;;5.57;;
11006;SDS011;8186;57.652;11.968;2022-12-29T08:14:40;16.27;;;5.17;;
11006;SDS011;8186;57.652;11.968;2022-12-29T08:17:07;13.93;;;5.13;;
11006;SDS011;8186;57.652;11.968;2022-12-29T08:19:35;10.33;;;4.30;;
11006;SDS011;8186;57.652;11.968;2022-12-29T08:22:02;15.10;;;5.00;;
11006;SDS011;8186;57.652;11.968;2022-12-29T08:24:31;9.10;;;4.20;;
11006;SDS011;8186;57.652;11.968;2022-12-29T08:26:59;9.10;;;3.30;;
11006;SDS011;8186;57.652;11.968;2022-12-29T08:29:27;11.87;;;4.23;;
11006;SDS011;8186;57.652;11.968;2022-12-29T08:31:55;13.17;;;3.90;;
11006;SDS011;8186;57.652;11.968;2022-12-29T08:34:22;12.20;;;4.13;;
11006;SDS011;8186;57.652;11.968;2022-12-29T08:36:49;12.33;;;3.50;;
11006;SDS011;8186;57.652;11.968;2022-12-29T08:39:16;15.90;;;4.87;;
11006;SDS011;8186;57.652;11.968;2022-12-29T08:41:45;8.17;;;3.20;;
11006;SDS011;8186;57.652;11.968;2022-12-29T08:44:12;10.70;;;3.87;;
11006;SDS011;8186;57.652;11.968;2022-12-29T08:46:39;8.80;;;3.80;;
11006;SDS011;8186;57.652;11.968;2022-12-29T08:49:07;10.93;;;3.83;;
11006;SDS011;8186;57.652;11.968;2022-12-29T08:51:34;6.33;;;2.93;;
11006;SDS011;8186;57.652;11.968;2022-12-29T08:54:02;9.40;;;3.80;;
11006;SDS011;8186;57.652;11.968;2022-12-29T08:56:29;10.27;;;3.60;;
11006;SDS011;8186;57.652;11.968;2022-12-29T08:58:59;9.60;;;3.83;;
11006;SDS011;8186;57.652;11.968;2022-12-29T09:01:26;9.63;;;4.10;;
11006;SDS011;8186;57.652;11.968;2022-12-29T09:03:53;14.40;;;4.17;;
11006;SDS011;8186;57.652;11.968;2022-12-29T09:06:21;12.27;;;5.13;;
11006;SDS011;8186;57.652;11.968;2022-12-29T09:08:48;14.83;;;4.97;;
11006;SDS011;8186;57.652;11.968;2022-12-29T09:11:16;15.93;;;5.33;;
11006;SDS011;8186;57.652;11.968;2022-12-29T09:13:45;13.73;;;4.90;;
11006;SDS011;8186;57.652;11.968;2022-12-29T09:16:14;14.03;;;6.07;;
11006;SDS011;8186;57.652;11.968;2022-12-29T09:18:42;12.90;;;6.23;;
11006;SDS011;8186;57.652;11.968;2022-12-29T09:21:10;16.40;;;6.33;;
11006;SDS011;8186;57.652;11.968;2022-12-29T09:23:38;16.03;;;7.93;;
11006;SDS011;8186;57.652;11.968;2022-12-29T09:26:05;10.90;;;6.23;;
11006;SDS011;8186;57.652;11.968;2022-12-29T09:28:34;13.33;;;6.93;;
11006;SDS011;8186;57.652;11.968;2022-12-29T09:31:02;13.47;;;8.97;;
11006;SDS011;8186;57.652;11.968;2022-12-29T09:33:30;14.23;;;8.83;;
11006;SDS011;8186;57.652;11.968;2022-12-29T09:36:00;9.37;;;7.20;;
11006;SDS011;8186;57.652;11.968;2022-12-29T09:38:31;14.30;;;9.17;;
11006;SDS011;8186;57.652;11.968;2022-12-29T09:40:59;11.30;;;7.13;;
11006;SDS011;8186;57.652;11.968;2022-12-29T09:43:32;9.93;;;7.50;;
11006;SDS011;8186;57.652;11.968;2022-12-29T09:46:29;11.77;;;7.00;;
11006;SDS011;8186;57.652;11.968;2022-12-29T09:49:04;7.80;;;6.40;;
11006;SDS011;8186;57.652;11.968;2022-12-29T09:51:36;10.27;;;8.07;;
11006;SDS011;8186;57.652;11.968;2022-12-29T09:54:05;9.03;;;6.43;;
11006;SDS011;8186;57.652;11.968;2022-12-29T09:56:46;11.67;;;5.97;;
11006;SDS011;8186;57.652;11.968;2022-12-29T09:59:14;7.60;;;5.57;;
11006;SDS011;8186;57.652;11.968;2022-12-29T10:01:44;14.57;;;8.23;;
11006;SDS011;8186;57.652;11.968;2022-12-29T10:04:14;15.03;;;7.87;;
11006;SDS011;8186;57.652;11.968;2022-12-29T10:06:42;12.17;;;8.40;;
11006;SDS011;8186;57.652;11.968;2022-12-29T10:09:13;11.13;;;7.30;;
11006;SDS011;8186;57.652;11.968;2022-12-29T10:11:48;19.63;;;7.43;;
11006;SDS011;8186;57.652;11.968;2022-12-29T10:14:27;17.23;;;8.10;;
11006;SDS011;8186;57.652;11.968;2022-12-29T10:17:00;16.97;;;6.50;;
11006;SDS011;8186;57.652;11.968;2022-12-29T10:19:36;16.03;;;7.53;;
11006;SDS011;8186;57.652;11.968;2022-12-29T10:22:18;14.70;;;6.23;;
11006;SDS011;8186;57.652;11.968;2022-12-29T10:24:50;13.17;;;4.87;;
11006;SDS011;8186;57.652;11.968;2022-12-29T10:27:19;13.07;;;6.10;;
11006;SDS011;8186;57.652;11.968;2022-12-29T10:29:48;15.57;;;5.03;;
11006;SDS011;8186;57.652;11.968;2022-12-29T10:32:21;12.93;;;4.47;;
11006;SDS011;8186;57.652;11.968;2022-12-29T10:34:55;13.10;;;4.63;;
11006;SDS011;8186;57.652;11.968;2022-12-29T10:37:27;12.70;;;4.50;;
11006;SDS011;8186;57.652;11.968;2022-12-29T10:39:58;10.90;;;5.00;;
11006;SDS011;8186;57.652;11.968;2022-12-29T10:42:26;11.93;;;4.30;;
11006;SDS011;8186;57.652;11.968;2022-12-29T10:44:54;10.23;;;3.37;;
11006;SDS011;8186;57.652;11.968;2022-12-29T10:47:22;15.33;;;3.90;;
11006;SDS011;8186;57.652;11.968;2022-12-29T10:49:51;13.63;;;3.53;;
11006;SDS011;8186;57.652;11.968;2022-12-29T10:52:19;9.30;;;3.90;;
11006;SDS011;8186;57.652;11.968;2022-12-29T10:54:48;13.27;;;3.67;;
11006;SDS011;8186;57.652;11.968;2022-12-29T10:57:20;9.87;;;3.50;;
11006;SDS011;8186;57.652;11.968;2022-12-29T10:59:52;10.27;;;3.00;;
11006;SDS011;8186;57.652;11.968;2022-12-29T11:05:16;9.87;;;2.93;;
11006;SDS011;8186;57.652;11.968;2022-12-29T11:07:49;15.47;;;2.70;;
11006;SDS011;8186;57.652;11.968;2022-12-29T11:10:17;15.23;;;3.07;;
11006;SDS011;8186;57.652;11.968;2022-12-29T11:12:56;12.70;;;3.07;;
11006;SDS011;8186;57.652;11.968;2022-12-29T11:15:24;11.27;;;2.77;;
11006;SDS011;8186;57.652;11.968;2022-12-29T11:17:51;11.10;;;3.13;;
11006;SDS011;8186;57.652;11.968;2022-12-29T11:20:27;9.30;;;2.83;;
11006;SDS011;8186;57.652;11.968;2022-12-29T11:22:59;17.93;;;3.10;;
11006;SDS011;8186;57.652;11.968;2022-12-29T11:25:27;13.47;;;3.10;;
11006;SDS011;8186;57.652;11.968;2022-12-29T11:27:55;14.10;;;2.73;;
11006;SDS011;8186;57.652;11.968;2022-12-29T11:30:23;22.17;;;4.40;;
11006;SDS011;8186;57.652;11.968;2022-12-29T11:32:53;19.20;;;3.30;;
11006;SDS011;8186;57.652;11.968;2022-12-29T11:35:31;19.07;;;3.37;;
11006;SDS011;8186;57.652;11.968;2022-12-29T11:38:02;14.53;;;2.90;;
11006;SDS011;8186;57.652;11.968;2022-12-29T11:40:29;11.47;;;3.57;;
11006;SDS011;8186;57.652;11.968;2022-12-29T11:42:57;16.03;;;3.40;;
11006;SDS011;8186;57.652;11.968;2022-12-29T11:45:28;23.83;;;4.27;;
11006;SDS011;8186;57.652;11.968;2022-12-29T11:47:58;24.80;;;5.07;;
11006;SDS011;8186;57.652;11.968;2022-12-29T11:50:26;18.07;;;3.43;;
11006;SDS011;8186;57.652;11.968;2022-12-29T11:52:57;15.57;;;3.30;;
11006;SDS011;8186;57.652;11.968;2022-12-29T11:55:27;19.17;;;3.73;;
11006;SDS011;8186;57.652;11.968;2022-12-29T11:57:55;14.93;;;3.40;;
11006;SDS011;8186;57.652;11.968;2022-12-29T12:00:27;15.87;;;3.23;;
11006;SDS011;8186;57.652;11.968;2022-12-29T12:02:56;14.53;;;3.80;;
11006;SDS011;8186;57.652;11.968;2022-12-29T12:05:28;12.10;;;3.37;;
11006;SDS011;8186;57.652;11.968;2022-12-29T12:08:02;23.87;;;4.43;;
11006;SDS011;8186;57.652;11.968;2022-12-29T12:10:37;18.17;;;3.67;;
11006;SDS011;8186;57.652;11.968;2022-12-29T12:13:14;16.50;;;3.03;;
11006;SDS011;8186;57.652;11.968;2022-12-29T12:15:47;16.77;;;3.97;;
11006;SDS011;8186;57.652;11.968;2022-12-29T12:18:28;20.07;;;3.93;;
11006;SDS011;8186;57.652;11.968;2022-12-29T12:21:00;21.40;;;4.33;;
11006;SDS011;8186;57.652;11.968;2022-12-29T12:23:36;18.93;;;4.67;;
11006;SDS011;8186;57.652;11.968;2022-12-29T12:26:11;17.87;;;3.67;;
11006;SDS011;8186;57.652;11.968;2022-12-29T12:28:42;25.37;;;5.17;;
11006;SDS011;8186;57.652;11.968;2022-12-29T12:31:17;23.13;;;4.83;;
11006;SDS011;8186;57.652;11.968;2022-12-29T12:33:50;19.30;;;3.90;;
11006;SDS011;8186;57.652;11.968;2022-12-29T12:36:24;18.63;;;4.63;;
11006;SDS011;8186;57.652;11.968;2022-12-29T12:38:58;16.37;;;4.20;;
11006;SDS011;8186;57.652;11.968;2022-12-29T12:41:33;21.90;;;3.97;;
11006;SDS011;8186;57.652;11.968;2022-12-29T12:44:10;26.23;;;4.87;;
11006;SDS011;8186;57.652;11.968;2022-12-29T12:46:42;29.97;;;4.60;;
11006;SDS011;8186;57.652;11.968;2022-12-29T12:49:29;19.43;;;4.43;;
11006;SDS011;8186;57.652;11.968;2022-12-29T12:52:04;23.43;;;4.20;;
11006;SDS011;8186;57.652;11.968;2022-12-29T12:54:40;17.63;;;4.77;;
11006;SDS011;8186;57.652;11.968;2022-12-29T12:57:20;20.23;;;4.27;;
11006;SDS011;8186;57.652;11.968;2022-12-29T12:59:56;19.43;;;4.67;;
11006;SDS011;8186;57.652;11.968;2022-12-29T13:02:37;20.17;;;3.83;;
11006;SDS011;8186;57.652;11.968;2022-12-29T13:11:02;17.27;;;3.47;;
11006;SDS011;8186;57.652;11.968;2022-12-29T13:16:40;20.07;;;3.80;;
11006;SDS011;8186;57.652;11.968;2022-12-29T13:19:10;23.80;;;4.00;;
11006;SDS011;8186;57.652;11.968;2022-12-29T13:21:46;17.87;;;4.17;;
11006;SDS011;8186;57.652;11.968;2022-12-29T13:24:23;26.23;;;5.43;;
11006;SDS011;8186;57.652;11.968;2022-12-29T13:26:54;20.33;;;4.10;;
11006;SDS011;8186;57.652;11.968;2022-12-29T13:29:23;24.70;;;6.07;;
11006;SDS011;8186;57.652;11.968;2022-12-29T13:32:00;27.60;;;5.93;;
11006;SDS011;8186;57.652;11.968;2022-12-29T13:34:40;18.57;;;3.87;;
11006;SDS011;8186;57.652;11.968;2022-12-29T13:37:16;23.63;;;5.27;;
11006;SDS011;8186;57.652;11.968;2022-12-29T13:39:46;17.47;;;4.20;;
11006;SDS011;8186;57.652;11.968;2022-12-29T13:42:15;21.60;;;4.20;;
11006;SDS011;8186;57.652;11.968;2022-12-29T13:44:44;22.53;;;4.13;;
11006;SDS011;8186;57.652;11.968;2022-12-29T13:47:17;20.17;;;4.10;;
11006;SDS011;8186;57.652;11.968;2022-12-29T13:49:48;15.80;;;3.80;;
11006;SDS011;8186;57.652;11.968;2022-12-29T13:52:18;25.67;;;5.03;;
11006;SDS011;8186;57.652;11.968;2022-12-29T13:54:52;18.63;;;4.40;;
11006;SDS011;8186;57.652;11.968;2022-12-29T13:57:28;19.83;;;4.80;;
11006;SDS011;8186;57.652;11.968;2022-12-29T14:00:02;21.10;;;3.97;;
11006;SDS011;8186;57.652;11.968;2022-12-29T14:02:34;23.50;;;5.03;;
11006;SDS011;8186;57.652;11.968;2022-12-29T14:05:05;22.23;;;4.37;;
11006;SDS011;8186;57.652;11.968;2022-12-29T14:07:56;18.87;;;4.40;;
11006;SDS011;8186;57.652;11.968;2022-12-29T14:10:26;20.87;;;5.37;;
11006;SDS011;8186;57.652;11.968;2022-12-29T14:12:59;20.27;;;4.43;;
11006;SDS011;8186;57.652;11.968;2022-12-29T14:15:28;17.93;;;4.90;;
11006;SDS011;8186;57.652;11.968;2022-12-29T14:18:10;24.40;;;4.53;;
11006;SDS011;8186;57.652;11.968;2022-12-29T14:20:38;30.03;;;6.20;;
11006;SDS011;8186;57.652;11.968;2022-12-29T14:23:16;21.63;;;5.03;;
11006;SDS011;8186;57.652;11.968;2022-12-29T14:25:59;23.13;;;5.97;;
11006;SDS011;8186;57.652;11.968;2022-12-29T14:28:27;23.40;;;4.87;;
11006;SDS011;8186;57.652;11.968;2022-12-29T14:30:56;28.33;;;4.03;;
11006;SDS011;8186;57.652;11.968;2022-12-29T14:33:24;28.33;;;5.03;;
11006;SDS011;8186;57.652;11.968;2022-12-29T14:35:53;24.87;;;5.00;;
11006;SDS011;8186;57.652;11.968;2022-12-29T14:38:22;24.07;;;5.53;;
11006;SDS011;8186;57.652;11.968;2022-12-29T14:40:51;23.33;;;5.13;;
11006;SDS011;8186;57.652;11.968;2022-12-29T14:43:19;18.40;;;3.83;;
11006;SDS011;8186;57.652;11.968;2022-12-29T14:45:52;27.90;;;5.13;;
11006;SDS011;8186;57.652;11.968;2022-12-29T14:48:34;28.53;;;5.90;;
11006;SDS011;8186;57.652;11.968;2022-12-29T14:53:47;18.30;;;4.20;;
11006;SDS011;8186;57.652;11.968;2022-12-29T14:56:15;27.47;;;5.00;;
11006;SDS011;8186;57.652;11.968;2022-12-29T14:58:44;25.60;;;3.70;;
11006;SDS011;8186;57.652;11.968;2022-12-29T15:01:18;15.17;;;4.33;;
11006;SDS011;8186;57.652;11.968;2022-12-29T15:03:51;17.87;;;4.13;;
11006;SDS011;8186;57.652;11.968;2022-12-29T15:06:21;13.07;;;3.00;;
11006;SDS011;8186;57.652;11.968;2022-12-29T15:08:50;19.03;;;3.70;;
11006;SDS011;8186;57.652;11.968;2022-12-29T15:11:19;13.30;;;2.87;;
11006;SDS011;8186;57.652;11.968;2022-12-29T15:13:48;13.43;;;2.80;;
11006;SDS011;8186;57.652;11.968;2022-12-29T15:16:22;15.00;;;3.57;;
11006;SDS011;8186;57.652;11.968;2022-12-29T15:18:51;21.50;;;2.87;;
11006;SDS011;8186;57.652;11.968;2022-12-29T15:21:19;18.23;;;3.30;;